createdAt,value
2023-02-09T00:00:13.177Z,4.88
2023-02-09T00:02:40.709Z,11.95
2023-02-09T00:05:09.199Z,11.32
2023-02-09T00:07:36.599Z,12.57
2023-02-09T00:10:05.689Z,6.78
2023-02-09T00:12:50.770Z,8.43
2023-02-09T00:15:17.598Z,7.10
2023-02-09T00:17:44.353Z,4.47
2023-02-09T00:20:11.469Z,8.13
2023-02-09T00:22:38.201Z,6.88
2023-02-09T00:25:05.302Z,10.73
2023-02-09T00:27:35.568Z,5.32
2023-02-09T00:30:02.687Z,6.25
2023-02-09T00:32:33.167Z,3.03
2023-02-09T00:35:00.092Z,24.63
2023-02-09T00:37:26.906Z,14.65
2023-02-09T00:39:53.667Z,17.23
2023-02-09T00:42:20.404Z,11.57
2023-02-09T00:44:47.166Z,7.85
2023-02-09T00:47:13.895Z,5.65
2023-02-09T00:49:40.699Z,4.70
2023-02-09T00:52:09.768Z,3.25
2023-02-09T00:54:36.812Z,4.65
2023-02-09T00:57:05.523Z,8.15
2023-02-09T00:59:34.969Z,5.25
2023-02-09T01:02:02.409Z,12.07
2023-02-09T01:04:29.211Z,12.88
2023-02-09T01:06:56.106Z,4.22
2023-02-09T01:09:22.859Z,13.13
2023-02-09T01:11:49.852Z,7.65
2023-02-09T01:14:17.392Z,12.35
2023-02-09T01:16:44.274Z,4.68
2023-02-09T01:19:13.666Z,14.10
2023-02-09T01:21:41.114Z,4.63
2023-02-09T01:24:12.968Z,4.40
2023-02-09T01:26:39.752Z,4.50
2023-02-09T01:29:06.780Z,4.90
2023-02-09T01:31:35.942Z,4.30
2023-02-09T01:34:04.602Z,3.40
2023-02-09T01:36:33.036Z,16.88
2023-02-09T01:39:02.570Z,4.22
2023-02-09T01:41:29.995Z,5.30
2023-02-09T01:44:03.988Z,8.75
2023-02-09T01:46:35.648Z,8.13
2023-02-09T01:49:10.086Z,4.97
2023-02-09T01:51:42.772Z,12.10
2023-02-09T01:54:19.348Z,12.38
2023-02-09T01:56:51.425Z,5.25
2023-02-09T01:59:19.535Z,8.13
2023-02-09T02:01:46.358Z,6.88
2023-02-09T02:04:13.422Z,4.72
2023-02-09T02:06:40.955Z,4.13
2023-02-09T02:09:14.260Z,4.15
2023-02-09T02:11:45.258Z,3.22
2023-02-09T02:14:37.402Z,6.60
2023-02-09T02:17:17.751Z,5.90
2023-02-09T02:22:48.365Z,4.10
2023-02-09T02:25:38.139Z,5.75
2023-02-09T02:28:26.323Z,10.40
2023-02-09T02:31:34.145Z,7.88
2023-02-09T02:34:12.753Z,3.55
2023-02-09T02:36:47.464Z,13.82
2023-02-09T02:39:26.726Z,4.30
2023-02-09T02:42:21.944Z,4.78
2023-02-09T02:45:04.629Z,8.82
2023-02-09T02:47:35.017Z,6.65
2023-02-09T02:50:14.310Z,9.00
2023-02-09T02:52:46.030Z,5.18
2023-02-09T02:55:17.554Z,3.72
2023-02-09T02:57:50.523Z,4.55
2023-02-09T03:00:26.915Z,4.97
2023-02-09T03:02:59.016Z,5.85
2023-02-09T03:05:27.470Z,2.88
2023-02-09T03:07:54.257Z,14.15
2023-02-09T03:10:41.131Z,6.32
2023-02-09T03:13:21.373Z,5.32
2023-02-09T03:16:21.021Z,19.98
2023-02-09T03:19:03.859Z,5.88
2023-02-09T03:22:02.604Z,4.30
2023-02-09T03:24:32.184Z,4.47
2023-02-09T03:27:18.904Z,4.82
2023-02-09T03:29:50.129Z,2.90
2023-02-09T03:32:18.990Z,4.13
2023-02-09T03:34:46.048Z,12.60
2023-02-09T03:37:13.020Z,4.68
2023-02-09T03:39:39.992Z,6.07
2023-02-09T03:42:07.124Z,4.90
2023-02-09T03:44:33.852Z,6.68
2023-02-09T03:47:05.138Z,5.85
2023-02-09T03:49:40.766Z,4.10
2023-02-09T03:52:12.281Z,3.53
2023-02-09T03:54:39.564Z,7.57
2023-02-09T03:57:08.404Z,8.40
2023-02-09T03:59:38.296Z,4.53
2023-02-09T04:02:08.174Z,4.93
2023-02-09T04:04:35.596Z,6.90
2023-02-09T04:07:02.879Z,6.82
2023-02-09T04:09:29.836Z,11.77
2023-02-09T04:11:56.756Z,6.63
2023-02-09T04:14:23.559Z,4.63
2023-02-09T04:16:50.266Z,4.90
2023-02-09T04:19:17.297Z,6.93
2023-02-09T04:21:44.219Z,8.27
2023-02-09T04:24:11.052Z,10.90
2023-02-09T04:26:37.899Z,6.38
2023-02-09T04:29:04.901Z,8.27
2023-02-09T04:31:32.260Z,6.40
2023-02-09T04:33:59.079Z,9.75
2023-02-09T04:36:25.879Z,6.75
2023-02-09T04:38:52.674Z,11.48
2023-02-09T04:41:19.449Z,6.05
2023-02-09T04:43:46.901Z,5.78
2023-02-09T04:46:16.197Z,4.45
2023-02-09T04:48:43.870Z,6.28
2023-02-09T04:51:11.020Z,5.30
2023-02-09T04:53:37.793Z,7.75
2023-02-09T04:56:05.401Z,5.65
2023-02-09T04:58:50.695Z,3.95
2023-02-09T05:01:24.303Z,6.43
2023-02-09T05:03:52.302Z,4.82
2023-02-09T05:06:19.487Z,4.15
2023-02-09T05:08:46.972Z,7.75
2023-02-09T05:11:13.728Z,10.60
2023-02-09T05:13:40.514Z,9.50
2023-02-09T05:16:11.769Z,6.88
2023-02-09T05:18:38.529Z,6.32
2023-02-09T05:21:05.801Z,5.30
2023-02-09T05:23:32.551Z,5.53
2023-02-09T05:25:59.295Z,6.72
2023-02-09T05:28:26.337Z,14.40
2023-02-09T05:30:54.280Z,5.32
2023-02-09T05:33:23.953Z,8.43
2023-02-09T05:35:52.565Z,5.80
2023-02-09T05:38:19.841Z,4.70
2023-02-09T05:40:47.003Z,4.78
2023-02-09T05:43:15.029Z,6.30
2023-02-09T05:45:41.848Z,5.22
2023-02-09T05:48:08.613Z,5.93
2023-02-09T05:50:36.103Z,8.07
2023-02-09T05:53:03.169Z,16.27
2023-02-09T05:55:30.068Z,11.40
2023-02-09T05:57:56.993Z,15.65
2023-02-09T06:00:25.243Z,4.90
2023-02-09T06:02:52.140Z,8.38
2023-02-09T06:05:21.174Z,4.72
2023-02-09T06:07:48.907Z,8.15
2023-02-09T06:10:19.599Z,9.40
2023-02-09T06:12:46.392Z,10.00
2023-02-09T06:15:16.279Z,6.40
2023-02-09T06:17:43.293Z,8.43
2023-02-09T06:20:11.176Z,7.25
2023-02-09T06:22:37.945Z,6.53
2023-02-09T06:25:05.056Z,8.02
2023-02-09T06:27:31.809Z,5.65
2023-02-09T06:29:58.560Z,8.32
2023-02-09T06:32:25.284Z,6.90
2023-02-09T06:34:52.086Z,6.53
2023-02-09T06:37:18.827Z,6.35
2023-02-09T06:39:45.618Z,10.63
2023-02-09T06:42:12.362Z,6.65
2023-02-09T06:44:39.110Z,8.18
2023-02-09T06:47:05.867Z,8.05
2023-02-09T06:49:32.849Z,8.80
2023-02-09T06:51:59.773Z,8.85
2023-02-09T06:54:28.444Z,8.60
2023-02-09T06:56:55.719Z,5.40
2023-02-09T06:59:22.559Z,8.40
2023-02-09T07:01:54.754Z,8.75
2023-02-09T07:04:22.322Z,7.90
2023-02-09T07:06:49.146Z,7.85
2023-02-09T07:09:15.898Z,4.63
2023-02-09T07:11:42.783Z,7.03
2023-02-09T07:14:09.517Z,6.28
2023-02-09T07:16:36.239Z,8.38
2023-02-09T07:19:03.007Z,11.85
2023-02-09T07:21:29.835Z,7.18
2023-02-09T07:23:56.576Z,27.13
2023-02-09T07:26:23.321Z,15.30
2023-02-09T07:28:50.081Z,11.10
2023-02-09T07:31:17.750Z,11.40
2023-02-09T07:33:44.929Z,24.65
2023-02-09T07:36:14.493Z,5.22
2023-02-09T07:38:41.741Z,7.85
2023-02-09T07:41:16.289Z,14.55
2023-02-09T07:43:43.205Z,10.45
2023-02-09T07:46:11.943Z,9.95
2023-02-09T07:48:38.728Z,9.23
2023-02-09T07:51:05.880Z,17.63
2023-02-09T07:53:33.495Z,16.27
2023-02-09T07:56:00.430Z,13.40
2023-02-09T07:58:27.220Z,16.00
2023-02-09T08:00:54.007Z,8.77
2023-02-09T08:03:23.747Z,14.18
2023-02-09T08:06:08.649Z,11.38
2023-02-09T08:08:35.357Z,11.48
2023-02-09T08:11:04.348Z,8.25
2023-02-09T08:13:37.201Z,11.82
2023-02-09T08:16:08.939Z,17.13
2023-02-09T08:18:49.153Z,9.50
2023-02-09T08:21:17.759Z,8.95
2023-02-09T08:23:47.767Z,16.00
2023-02-09T08:26:15.362Z,11.88
2023-02-09T08:28:45.856Z,20.67
2023-02-09T08:31:19.281Z,16.20
2023-02-09T08:33:48.325Z,21.52
2023-02-09T08:36:16.898Z,8.75
2023-02-09T08:38:44.421Z,17.08
2023-02-09T08:41:13.713Z,13.90
2023-02-09T08:43:40.834Z,10.77
2023-02-09T08:46:12.500Z,18.23
2023-02-09T08:48:43.181Z,15.75
2023-02-09T08:51:12.284Z,21.60
2023-02-09T08:53:39.583Z,18.02
2023-02-09T08:56:06.939Z,18.92
2023-02-09T08:58:33.675Z,16.65
2023-02-09T09:01:00.868Z,20.65
2023-02-09T09:03:31.642Z,33.05
2023-02-09T09:06:00.857Z,19.60
2023-02-09T09:08:28.371Z,18.30
2023-02-09T09:10:55.521Z,13.77
2023-02-09T09:13:26.596Z,22.23
2023-02-09T09:15:57.484Z,20.60
2023-02-09T09:18:25.941Z,30.00
2023-02-09T09:20:53.146Z,19.98
2023-02-09T09:23:21.293Z,20.98
2023-02-09T09:25:48.617Z,25.33
2023-02-09T09:28:16.001Z,17.60
2023-02-09T09:30:43.063Z,27.45
2023-02-09T09:33:09.907Z,29.25
2023-02-09T09:35:36.810Z,29.05
2023-02-09T09:38:03.595Z,25.23
2023-02-09T09:40:35.701Z,35.70
2023-02-09T09:43:06.177Z,24.83
2023-02-09T09:45:38.384Z,29.48
2023-02-09T09:48:07.561Z,30.50
2023-02-09T09:50:42.129Z,25.63
2023-02-09T09:53:31.832Z,26.33
2023-02-09T09:56:02.859Z,27.23
2023-02-09T09:58:30.979Z,23.92
2023-02-09T10:00:57.903Z,28.10
2023-02-09T10:03:25.591Z,34.97
2023-02-09T10:05:56.748Z,27.67
2023-02-09T10:08:39.639Z,25.23
2023-02-09T10:13:44.635Z,25.27
2023-02-09T10:16:19.399Z,36.28
2023-02-09T10:18:57.436Z,27.05
2023-02-09T10:21:28.508Z,28.58
2023-02-09T10:24:01.375Z,26.77
2023-02-09T10:26:34.899Z,33.83
2023-02-09T10:29:24.993Z,38.13
2023-02-09T10:32:05.281Z,30.10
2023-02-09T10:34:44.492Z,24.02
2023-02-09T10:37:36.161Z,32.83
2023-02-09T10:40:26.752Z,27.85
2023-02-09T10:42:59.501Z,31.00
2023-02-09T10:48:19.284Z,28.17
2023-02-09T10:50:59.029Z,31.42
2023-02-09T10:53:31.732Z,25.17
2023-02-09T10:56:05.799Z,33.58
2023-02-09T10:58:36.596Z,28.73
2023-02-09T11:01:09.146Z,29.40
2023-02-09T11:03:46.486Z,26.25
2023-02-09T11:06:19.492Z,33.97
2023-02-09T11:08:52.680Z,26.13
2023-02-09T11:11:37.085Z,26.63
2023-02-09T11:14:10.457Z,24.27
2023-02-09T11:16:55.823Z,25.80
2023-02-09T11:19:58.771Z,29.38
2023-02-09T11:22:49.769Z,30.92
2023-02-09T11:25:26.705Z,25.30
2023-02-09T11:28:35.491Z,26.58
2023-02-09T11:31:46.561Z,29.38
2023-02-09T11:35:01.127Z,28.25
2023-02-09T11:37:54.309Z,26.23
2023-02-09T11:40:43.289Z,27.80
2023-02-09T11:43:19.278Z,21.95
2023-02-09T11:45:48.529Z,29.55
2023-02-09T11:48:18.147Z,27.77
2023-02-09T11:51:10.321Z,29.83
2023-02-09T11:53:54.093Z,29.13
2023-02-09T11:56:24.127Z,24.30
2023-02-09T11:59:15.581Z,28.73
2023-02-09T12:02:07.667Z,25.50
2023-02-09T12:05:02.821Z,23.77
2023-02-09T12:07:49.220Z,31.63
2023-02-09T12:10:36.341Z,23.23
2023-02-09T12:13:34.088Z,22.23
2023-02-09T12:16:07.468Z,25.30
2023-02-09T12:18:35.553Z,24.17
2023-02-09T12:21:06.379Z,25.58
2023-02-09T12:23:39.057Z,25.75
2023-02-09T12:26:12.003Z,15.60
2023-02-09T12:28:43.906Z,13.40
2023-02-09T12:31:23.863Z,17.33
2023-02-09T12:33:59.851Z,17.48
2023-02-09T12:36:35.563Z,16.15
2023-02-09T12:39:23.847Z,17.70
2023-02-09T12:41:50.719Z,11.75
2023-02-09T12:44:18.437Z,12.05
2023-02-09T12:46:45.251Z,9.48
2023-02-09T12:49:11.951Z,9.73
2023-02-09T12:51:50.788Z,14.45
2023-02-09T12:54:50.022Z,12.13
2023-02-09T12:57:16.844Z,11.75
2023-02-09T12:59:52.478Z,12.23
2023-02-09T13:02:27.485Z,13.20
2023-02-09T13:05:06.373Z,12.77
2023-02-09T13:07:33.037Z,15.50
2023-02-09T13:10:20.364Z,19.67
2023-02-09T13:12:58.894Z,19.58
2023-02-09T13:15:29.444Z,21.50
2023-02-09T13:17:59.336Z,22.10
2023-02-09T13:20:45.895Z,14.25
2023-02-09T13:24:06.846Z,15.48
2023-02-09T13:26:36.691Z,14.00
2023-02-09T13:29:20.906Z,15.13
2023-02-09T13:32:29.020Z,13.57
2023-02-09T13:35:01.691Z,12.20
2023-02-09T13:37:47.788Z,15.30
2023-02-09T13:40:26.060Z,17.20
2023-02-09T13:43:10.880Z,19.80
2023-02-09T13:45:49.066Z,24.13
2023-02-09T13:48:27.466Z,23.45
2023-02-09T13:50:56.710Z,29.33
2023-02-09T13:53:27.169Z,26.73
2023-02-09T13:55:56.537Z,25.63
2023-02-09T13:58:31.164Z,25.00
2023-02-09T14:01:06.420Z,29.63
2023-02-09T14:03:56.765Z,26.60
2023-02-09T14:06:55.249Z,32.08
2023-02-09T14:09:30.195Z,26.63
2023-02-09T14:12:09.686Z,25.05
2023-02-09T14:15:14.493Z,30.27
2023-02-09T14:20:21.445Z,27.63
2023-02-09T14:23:01.014Z,29.38
2023-02-09T14:25:30.950Z,30.63
2023-02-09T14:27:58.439Z,27.52
2023-02-09T14:30:32.125Z,29.13
2023-02-09T14:33:03.466Z,26.80
2023-02-09T14:35:40.093Z,24.92
2023-02-09T14:38:37.156Z,31.50
2023-02-09T14:41:22.545Z,32.17
2023-02-09T14:44:22.347Z,31.92
2023-02-09T14:46:58.294Z,34.28
2023-02-09T14:49:26.436Z,33.47
2023-02-09T14:52:04.542Z,33.08
2023-02-09T14:54:35.036Z,33.20
2023-02-09T14:57:03.788Z,32.33
2023-02-09T14:59:30.904Z,31.55
2023-02-09T15:01:57.747Z,28.77
2023-02-09T15:04:24.514Z,26.00
2023-02-09T15:07:00.948Z,30.85
2023-02-09T15:09:36.166Z,28.00
2023-02-09T15:12:05.738Z,32.83
2023-02-09T15:14:45.004Z,28.42
2023-02-09T15:17:23.732Z,26.35
2023-02-09T15:19:50.485Z,27.25
2023-02-09T15:22:18.433Z,25.88
2023-02-09T15:24:48.413Z,27.88
2023-02-09T15:27:33.932Z,31.02
2023-02-09T15:30:04.331Z,29.55
2023-02-09T15:32:31.673Z,26.95
2023-02-09T15:34:58.451Z,30.15
2023-02-09T15:37:36.351Z,28.60
2023-02-09T15:40:14.080Z,25.58
2023-02-09T15:45:48.475Z,40.47
2023-02-09T15:48:15.505Z,49.95
2023-02-09T15:50:47.990Z,36.78
2023-02-09T15:53:18.899Z,30.83
2023-02-09T15:55:46.770Z,34.80
2023-02-09T15:58:21.807Z,33.92
2023-02-09T16:00:48.675Z,29.45
2023-02-09T16:03:18.892Z,33.15
2023-02-09T16:05:48.764Z,28.75
2023-02-09T16:08:23.836Z,33.35
2023-02-09T16:10:51.509Z,32.78
2023-02-09T16:13:20.031Z,30.42
2023-02-09T16:15:48.489Z,33.55
2023-02-09T16:18:15.673Z,34.78
2023-02-09T16:20:50.324Z,35.53
2023-02-09T16:23:24.074Z,74.40
2023-02-09T16:25:53.224Z,55.65
2023-02-09T16:28:21.757Z,50.72
2023-02-09T16:30:57.989Z,34.17
2023-02-09T16:33:25.826Z,33.75
2023-02-09T16:36:00.199Z,31.17
2023-02-09T16:38:28.526Z,39.50
2023-02-09T16:40:56.408Z,33.70
2023-02-09T16:43:23.909Z,36.55
2023-02-09T16:46:02.948Z,25.70
2023-02-09T16:48:32.483Z,27.52
2023-02-09T16:50:59.722Z,31.20
2023-02-09T16:53:35.037Z,30.80
2023-02-09T16:56:10.409Z,25.85
2023-02-09T16:58:38.375Z,28.77
2023-02-09T17:01:22.304Z,32.70
2023-02-09T17:03:53.025Z,29.35
2023-02-09T17:06:27.161Z,32.58
2023-02-09T17:08:56.621Z,27.38
2023-02-09T17:11:54.363Z,25.50
2023-02-09T17:14:21.107Z,25.67
2023-02-09T17:16:49.897Z,26.75
2023-02-09T17:19:18.317Z,33.90
2023-02-09T17:21:45.331Z,28.25
2023-02-09T17:24:17.530Z,26.17
2023-02-09T17:26:44.809Z,32.28
2023-02-09T17:29:12.212Z,28.92
2023-02-09T17:31:52.723Z,26.77
2023-02-09T17:34:22.070Z,36.10
2023-02-09T17:36:48.788Z,23.58
2023-02-09T17:39:16.864Z,29.50
2023-02-09T17:41:46.538Z,40.55
2023-02-09T17:44:35.239Z,29.38
2023-02-09T17:47:06.347Z,31.30
2023-02-09T17:49:33.383Z,31.40
2023-02-09T17:52:00.164Z,27.45
2023-02-09T17:54:27.956Z,27.05
2023-02-09T17:56:54.748Z,25.88
2023-02-09T17:59:21.649Z,23.10
2023-02-09T18:01:55.253Z,21.40
2023-02-09T18:04:26.916Z,21.55
2023-02-09T18:06:54.332Z,25.60
2023-02-09T18:09:21.878Z,24.42
2023-02-09T18:11:51.418Z,24.27
2023-02-09T18:14:21.236Z,21.85
2023-02-09T18:16:48.406Z,30.27
2023-02-09T18:19:18.820Z,26.40
2023-02-09T18:22:04.186Z,18.02
2023-02-09T18:24:34.402Z,27.45
2023-02-09T18:27:01.366Z,16.75
2023-02-09T18:29:30.819Z,22.73
2023-02-09T18:32:02.480Z,16.95
2023-02-09T18:34:30.227Z,15.23
2023-02-09T18:36:57.140Z,22.08
2023-02-09T18:39:24.061Z,19.25
2023-02-09T18:41:57.120Z,24.80
2023-02-09T18:44:29.038Z,21.65
2023-02-09T18:46:57.833Z,21.20
2023-02-09T18:49:24.668Z,23.08
2023-02-09T18:51:52.334Z,21.23
2023-02-09T18:54:19.377Z,22.08
2023-02-09T18:56:46.136Z,21.95
2023-02-09T18:59:13.009Z,19.52
2023-02-09T19:01:40.699Z,23.20
2023-02-09T19:04:08.139Z,21.20
2023-02-09T19:06:37.940Z,23.38
2023-02-09T19:09:04.730Z,18.50
2023-02-09T19:11:31.516Z,23.55
2023-02-09T19:14:36.724Z,20.80
2023-02-09T19:17:09.437Z,23.25
2023-02-09T19:19:36.235Z,28.33
2023-02-09T19:22:02.941Z,23.27
2023-02-09T19:24:29.755Z,25.83
2023-02-09T19:26:56.881Z,26.48
2023-02-09T19:29:25.799Z,22.52
2023-02-09T19:31:53.396Z,27.52
2023-02-09T19:34:20.124Z,26.17
2023-02-09T19:36:46.864Z,20.58
2023-02-09T19:39:13.641Z,21.20
2023-02-09T19:41:40.551Z,17.40
2023-02-09T19:44:07.361Z,27.98
2023-02-09T19:46:34.217Z,16.92
2023-02-09T19:49:02.169Z,15.07
2023-02-09T19:51:28.981Z,22.67
2023-02-09T19:53:55.755Z,24.02
2023-02-09T19:56:23.654Z,18.13
2023-02-09T19:58:51.536Z,24.23
2023-02-09T20:01:19.182Z,20.30
2023-02-09T20:03:46.276Z,20.83
2023-02-09T20:06:14.458Z,22.67
2023-02-09T20:08:41.282Z,25.33
2023-02-09T20:11:13.899Z,33.47
2023-02-09T20:16:18.055Z,20.02
2023-02-09T20:18:48.016Z,16.73
2023-02-09T20:21:20.453Z,29.67
2023-02-09T20:26:18.476Z,28.10
2023-02-09T20:28:45.208Z,25.98
2023-02-09T20:31:12.980Z,21.88
2023-02-09T20:33:41.369Z,23.25
2023-02-09T20:36:09.936Z,22.27
2023-02-09T20:38:37.476Z,17.30
2023-02-09T20:41:13.808Z,21.15
2023-02-09T20:44:03.209Z,15.75
2023-02-09T20:46:51.561Z,18.63
2023-02-09T20:49:19.152Z,16.58
2023-02-09T20:51:46.720Z,19.05
2023-02-09T20:54:14.041Z,16.27
2023-02-09T20:56:41.885Z,16.23
2023-02-09T20:59:08.976Z,16.63
2023-02-09T21:01:39.869Z,18.33
2023-02-09T21:04:07.551Z,12.65
2023-02-09T21:06:40.064Z,17.25
2023-02-09T21:11:35.255Z,17.27
2023-02-09T21:14:02.490Z,16.02
2023-02-09T21:16:31.019Z,13.57
2023-02-09T21:18:59.116Z,18.52
2023-02-09T21:21:27.193Z,20.02
2023-02-09T21:23:54.406Z,17.23
2023-02-09T21:26:22.854Z,23.48
2023-02-09T21:28:51.479Z,17.30
2023-02-09T21:31:22.413Z,13.13
2023-02-09T21:33:49.139Z,14.25
2023-02-09T21:36:15.975Z,14.63
2023-02-09T21:38:42.792Z,9.63
2023-02-09T21:41:44.080Z,15.40
2023-02-09T21:44:12.618Z,14.63
2023-02-09T21:46:39.421Z,13.70
2023-02-09T21:49:06.423Z,13.20
2023-02-09T21:51:33.654Z,12.57
2023-02-09T21:54:00.446Z,14.73
2023-02-09T21:56:27.218Z,10.20
2023-02-09T21:58:53.960Z,12.85
2023-02-09T22:01:20.745Z,20.25
2023-02-09T22:03:57.400Z,13.55
2023-02-09T22:06:25.836Z,14.93
2023-02-09T22:08:52.940Z,22.13
2023-02-09T22:11:19.681Z,8.50
2023-02-09T22:13:46.413Z,14.50
2023-02-09T22:16:20.665Z,10.30
2023-02-09T22:18:47.650Z,7.55
2023-02-09T22:21:14.462Z,7.93
2023-02-09T22:23:41.262Z,5.97
2023-02-09T22:26:08.263Z,10.43
2023-02-09T22:28:36.531Z,8.18
2023-02-09T22:31:22.333Z,6.28
2023-02-09T22:33:54.105Z,9.77
2023-02-09T22:36:22.063Z,11.30
2023-02-09T22:38:48.915Z,6.35
2023-02-09T22:41:22.429Z,9.88
2023-02-09T22:43:53.793Z,10.20
2023-02-09T22:46:28.924Z,17.75
2023-02-09T22:49:01.951Z,10.60
2023-02-09T22:51:30.630Z,17.20
2023-02-09T22:53:58.572Z,18.10
2023-02-09T22:56:26.570Z,10.75
2023-02-09T22:58:54.797Z,10.65
2023-02-09T23:01:22.498Z,11.73
2023-02-09T23:03:50.188Z,10.68
2023-02-09T23:06:21.380Z,11.20
2023-02-09T23:08:48.183Z,12.35
2023-02-09T23:11:17.369Z,15.02
2023-02-09T23:13:44.899Z,10.43
2023-02-09T23:16:27.368Z,12.15
2023-02-09T23:19:04.441Z,10.70
2023-02-09T23:21:37.883Z,7.03
2023-02-09T23:24:05.462Z,7.97
2023-02-09T23:26:32.837Z,8.02
2023-02-09T23:29:03.759Z,9.30
2023-02-09T23:31:30.926Z,6.57
2023-02-09T23:33:57.988Z,8.50
2023-02-09T23:36:28.102Z,13.02
2023-02-09T23:38:57.860Z,9.15
2023-02-09T23:41:25.947Z,4.63
2023-02-09T23:43:53.540Z,6.95
2023-02-09T23:46:26.725Z,13.13
2023-02-09T23:48:56.403Z,12.43
2023-02-09T23:51:33.385Z,8.32
2023-02-09T23:54:04.466Z,5.15
2023-02-09T23:56:37.029Z,11.90
2023-02-09T23:59:06.721Z,6.43
